createdAt,value
2024-05-09T00:01:37.635Z,15.73
2024-05-09T00:04:09.784Z,15.70
2024-05-09T00:06:41.979Z,15.77
2024-05-09T00:09:14.061Z,16.27
2024-05-09T00:11:46.147Z,17.27
2024-05-09T00:14:18.344Z,16.27
2024-05-09T00:16:50.459Z,16.03
2024-05-09T00:19:22.815Z,15.77
2024-05-09T00:21:54.943Z,15.50
2024-05-09T00:24:27.030Z,16.93
2024-05-09T00:26:59.130Z,15.97
2024-05-09T00:29:31.355Z,16.43
2024-05-09T00:32:04.077Z,15.67
2024-05-09T00:34:36.341Z,16.17
2024-05-09T00:37:08.508Z,17.13
2024-05-09T00:39:40.609Z,16.53
2024-05-09T00:42:12.694Z,16.53
2024-05-09T00:44:44.781Z,17.07
2024-05-09T00:47:18.295Z,15.47
2024-05-09T00:49:51.392Z,17.17
2024-05-09T00:52:24.842Z,16.27
2024-05-09T00:54:57.668Z,16.23
2024-05-09T00:57:30.548Z,17.00
2024-05-09T01:00:04.725Z,19.03
2024-05-09T01:02:39.431Z,19.53
2024-05-09T01:05:11.656Z,19.97
2024-05-09T01:07:44.019Z,21.33
2024-05-09T01:10:21.227Z,20.90
2024-05-09T01:12:59.761Z,22.33
2024-05-09T01:15:32.937Z,22.80
2024-05-09T01:18:10.848Z,22.30
2024-05-09T01:20:45.331Z,23.70
2024-05-09T01:23:17.843Z,23.80
2024-05-09T01:25:50.095Z,23.03
2024-05-09T01:28:22.323Z,23.13
2024-05-09T01:30:54.509Z,22.97
2024-05-09T01:33:27.022Z,21.63
2024-05-09T01:35:59.352Z,22.03
2024-05-09T01:38:31.615Z,21.93
2024-05-09T01:41:04.132Z,22.50
2024-05-09T01:43:36.250Z,22.40
2024-05-09T01:46:16.684Z,22.50
2024-05-09T01:48:48.991Z,21.17
2024-05-09T01:51:21.192Z,21.33
2024-05-09T01:53:56.089Z,20.10
2024-05-09T01:56:28.287Z,20.60
2024-05-09T01:59:00.573Z,20.97
2024-05-09T02:01:55.423Z,20.33
2024-05-09T02:04:24.996Z,20.17
2024-05-09T02:06:57.147Z,19.33
2024-05-09T02:09:29.286Z,19.63
2024-05-09T02:12:02.074Z,19.97
2024-05-09T02:14:34.392Z,19.33
2024-05-09T02:17:06.567Z,19.57
2024-05-09T02:19:38.729Z,20.03
2024-05-09T02:22:10.989Z,19.67
2024-05-09T02:24:43.108Z,19.43
2024-05-09T02:27:15.232Z,19.07
2024-05-09T02:29:47.313Z,19.17
2024-05-09T02:32:19.492Z,17.73
2024-05-09T02:34:51.760Z,18.63
2024-05-09T02:37:23.921Z,17.40
2024-05-09T02:39:56.012Z,17.87
2024-05-09T02:42:28.075Z,17.30
2024-05-09T02:45:00.207Z,17.30
2024-05-09T02:47:32.454Z,17.30
2024-05-09T02:50:06.222Z,17.57
2024-05-09T02:52:40.030Z,17.13
2024-05-09T02:55:12.180Z,17.33
2024-05-09T02:57:44.276Z,17.57
2024-05-09T03:00:22.749Z,17.33
2024-05-09T03:02:58.588Z,17.37
2024-05-09T03:05:31.009Z,16.37
2024-05-09T03:08:04.420Z,16.50
2024-05-09T03:10:38.612Z,17.00
2024-05-09T03:13:15.072Z,17.27
2024-05-09T03:15:48.151Z,18.00
2024-05-09T03:18:20.411Z,18.27
2024-05-09T03:20:52.595Z,18.27
2024-05-09T03:23:25.024Z,19.83
2024-05-09T03:25:57.247Z,21.63
2024-05-09T03:28:29.350Z,22.40
2024-05-09T03:31:01.807Z,22.17
2024-05-09T03:33:34.561Z,23.83
2024-05-09T03:36:10.563Z,24.67
2024-05-09T03:38:43.382Z,24.37
2024-05-09T03:41:15.626Z,25.30
2024-05-09T03:43:47.803Z,25.87
2024-05-09T03:46:19.917Z,27.73
2024-05-09T03:48:52.190Z,33.30
2024-05-09T03:51:24.335Z,31.07
2024-05-09T03:53:56.839Z,29.30
2024-05-09T03:56:29.121Z,29.93
2024-05-09T03:59:03.013Z,27.73
2024-05-09T04:01:35.186Z,27.87
2024-05-09T04:04:09.203Z,28.87
2024-05-09T04:06:43.202Z,29.03
2024-05-09T04:09:15.299Z,28.40
2024-05-09T04:11:47.515Z,28.33
2024-05-09T04:14:20.400Z,29.07
2024-05-09T04:16:52.636Z,27.13
2024-05-09T04:19:25.073Z,25.77
2024-05-09T04:21:57.200Z,24.73
2024-05-09T04:24:29.353Z,25.03
2024-05-09T04:27:01.820Z,23.17
2024-05-09T04:29:37.496Z,24.53
2024-05-09T04:32:09.928Z,23.57
2024-05-09T04:34:42.119Z,22.97
2024-05-09T04:37:14.170Z,22.80
2024-05-09T04:39:46.237Z,22.70
2024-05-09T04:42:18.371Z,23.37
2024-05-09T04:44:50.477Z,23.57
2024-05-09T04:47:22.848Z,23.73
2024-05-09T04:49:55.106Z,25.53
2024-05-09T04:52:27.215Z,25.10
2024-05-09T04:54:59.369Z,25.60
2024-05-09T04:57:31.489Z,24.10
2024-05-09T05:00:11.537Z,24.97
2024-05-09T05:02:46.917Z,24.97
2024-05-09T05:05:19.241Z,26.13
2024-05-09T05:07:51.498Z,24.47
2024-05-09T05:10:32.923Z,25.27
2024-05-09T05:13:18.488Z,25.57
2024-05-09T05:15:56.565Z,25.90
2024-05-09T05:18:30.019Z,25.53
2024-05-09T05:21:02.742Z,24.53
2024-05-09T05:23:35.014Z,25.70
2024-05-09T05:26:07.298Z,25.90
2024-05-09T05:28:39.407Z,25.90
2024-05-09T05:31:11.509Z,26.57
2024-05-09T05:33:43.860Z,25.33
2024-05-09T05:36:15.943Z,25.80
2024-05-09T05:38:48.133Z,25.37
2024-05-09T05:41:20.301Z,25.03
2024-05-09T05:43:52.491Z,25.00
2024-05-09T05:46:24.652Z,26.37
2024-05-09T05:48:56.938Z,26.70
2024-05-09T05:51:29.080Z,26.53
2024-05-09T05:54:01.737Z,28.07
2024-05-09T05:56:33.872Z,26.63
2024-05-09T05:59:06.145Z,26.97
2024-05-09T06:01:38.386Z,28.70
2024-05-09T06:04:10.782Z,29.53
2024-05-09T06:06:42.910Z,28.00
2024-05-09T06:09:15.039Z,28.13
2024-05-09T06:11:47.168Z,28.73
2024-05-09T06:14:19.387Z,26.87
2024-05-09T06:16:51.752Z,28.13
2024-05-09T06:19:24.913Z,28.70
2024-05-09T06:21:57.075Z,28.77
2024-05-09T06:24:29.377Z,28.03
2024-05-09T06:27:02.083Z,27.27
2024-05-09T06:29:38.571Z,27.70
2024-05-09T06:32:10.995Z,26.53
2024-05-09T06:34:43.264Z,27.37
2024-05-09T06:37:15.565Z,27.73
2024-05-09T06:39:47.671Z,26.57
2024-05-09T06:42:19.834Z,26.57
2024-05-09T06:44:51.940Z,26.10
2024-05-09T06:47:24.509Z,26.50
2024-05-09T06:49:56.751Z,27.20
2024-05-09T06:52:28.853Z,25.40
2024-05-09T06:55:01.008Z,25.70
2024-05-09T06:57:33.392Z,26.00
2024-05-09T07:02:38.865Z,25.57
2024-05-09T07:05:11.231Z,24.93
2024-05-09T07:07:43.410Z,23.77
2024-05-09T07:10:22.033Z,22.53
2024-05-09T07:13:00.860Z,23.53
2024-05-09T07:15:32.949Z,23.70
2024-05-09T07:18:13.381Z,22.87
2024-05-09T07:20:47.420Z,23.20
2024-05-09T07:23:20.029Z,23.17
2024-05-09T07:25:52.258Z,22.70
2024-05-09T07:28:24.882Z,22.23
2024-05-09T07:30:56.984Z,21.80
2024-05-09T07:33:29.371Z,21.00
2024-05-09T07:36:02.013Z,21.70
2024-05-09T07:38:34.181Z,19.60
2024-05-09T07:41:06.911Z,19.70
2024-05-09T07:43:38.998Z,19.77
2024-05-09T07:47:14.088Z,19.00
2024-05-09T07:50:53.375Z,20.03
2024-05-09T07:53:21.873Z,19.40
2024-05-09T07:54:49.470Z,19.07
2024-05-09T07:57:21.723Z,18.97
2024-05-09T07:59:53.852Z,19.57
2024-05-09T08:02:26.144Z,20.20
2024-05-09T08:04:58.438Z,18.13
2024-05-09T08:07:31.598Z,16.97
2024-05-09T08:10:05.253Z,16.50
2024-05-09T08:12:37.605Z,15.03
2024-05-09T08:15:09.706Z,15.47
2024-05-09T08:17:41.900Z,15.27
2024-05-09T08:20:22.505Z,16.43
2024-05-09T08:22:58.976Z,15.53
2024-05-09T08:25:31.050Z,15.33
2024-05-09T08:28:05.360Z,15.60
2024-05-09T08:30:38.396Z,15.33
2024-05-09T08:33:10.879Z,16.03
2024-05-09T08:35:43.019Z,15.23
2024-05-09T08:38:15.241Z,15.83
2024-05-09T08:40:48.944Z,16.13
2024-05-09T08:43:23.728Z,15.97
2024-05-09T08:45:58.828Z,15.40
2024-05-09T08:48:36.336Z,15.03
2024-05-09T08:51:08.710Z,15.67
2024-05-09T08:53:41.016Z,14.20
2024-05-09T08:56:16.419Z,14.20
2024-05-09T08:58:56.021Z,14.10
2024-05-09T09:01:33.890Z,15.70
2024-05-09T09:04:09.580Z,15.90
2024-05-09T09:06:44.008Z,15.10
2024-05-09T09:09:16.665Z,16.00
2024-05-09T09:11:48.856Z,15.37
2024-05-09T09:14:20.994Z,15.90
2024-05-09T09:16:55.000Z,15.20
2024-05-09T09:19:27.237Z,16.10
2024-05-09T09:21:59.470Z,15.20
2024-05-09T09:24:31.933Z,15.93
2024-05-09T09:27:05.414Z,14.63
2024-05-09T09:29:40.578Z,14.83
2024-05-09T09:32:12.747Z,14.40
2024-05-09T09:34:44.970Z,14.77
2024-05-09T09:37:22.791Z,14.90
2024-05-09T09:39:55.795Z,14.57
2024-05-09T09:42:30.476Z,15.00
2024-05-09T09:45:05.569Z,14.47
2024-05-09T09:47:40.636Z,14.90
2024-05-09T09:50:20.361Z,15.07
2024-05-09T09:52:56.748Z,14.37
2024-05-09T09:55:30.018Z,13.90
2024-05-09T09:58:05.872Z,15.33
2024-05-09T10:00:39.414Z,14.73
2024-05-09T10:03:11.791Z,14.93
2024-05-09T10:05:47.040Z,14.53
2024-05-09T10:08:22.184Z,15.20
2024-05-09T10:10:55.541Z,15.20
2024-05-09T10:13:37.402Z,14.43
2024-05-09T10:16:11.593Z,14.90
2024-05-09T10:18:44.216Z,14.70
2024-05-09T10:21:20.666Z,15.00
2024-05-09T10:24:03.990Z,14.70
2024-05-09T10:26:39.718Z,13.67
2024-05-09T10:29:17.141Z,14.00
2024-05-09T10:31:49.273Z,13.30
2024-05-09T10:34:24.101Z,14.13
2024-05-09T10:36:56.459Z,13.53
2024-05-09T10:39:37.306Z,15.20
2024-05-09T10:42:10.546Z,13.97
2024-05-09T10:44:43.017Z,15.13
2024-05-09T10:47:16.181Z,13.97
2024-05-09T10:49:49.662Z,14.07
2024-05-09T10:52:23.543Z,14.07
2024-05-09T10:54:56.625Z,14.97
2024-05-09T10:57:39.070Z,14.00
2024-05-09T11:00:19.438Z,13.17
2024-05-09T11:02:59.633Z,13.83
2024-05-09T11:05:34.039Z,14.70
2024-05-09T11:08:06.817Z,14.40
2024-05-09T11:10:40.215Z,13.43
2024-05-09T11:13:12.532Z,13.37
2024-05-09T11:15:44.711Z,14.40
2024-05-09T11:18:26.630Z,14.10
2024-05-09T11:21:00.213Z,14.13
2024-05-09T11:23:32.458Z,13.77
2024-05-09T11:26:05.008Z,13.13
2024-05-09T11:28:37.206Z,14.23
2024-05-09T11:31:10.536Z,13.07
2024-05-09T11:33:46.758Z,13.80
2024-05-09T11:36:19.108Z,13.70
2024-05-09T11:38:51.361Z,13.10
2024-05-09T11:41:24.287Z,12.90
2024-05-09T11:43:57.965Z,13.43
2024-05-09T11:46:30.100Z,13.37
2024-05-09T11:49:03.005Z,13.33
2024-05-09T11:51:35.353Z,12.43
2024-05-09T11:54:07.518Z,12.13
2024-05-09T11:56:39.854Z,12.60
2024-05-09T11:59:12.009Z,11.63
2024-05-09T12:01:44.286Z,12.07
2024-05-09T12:04:16.826Z,12.20
2024-05-09T12:06:49.290Z,12.00
2024-05-09T12:09:21.726Z,11.90
2024-05-09T12:11:53.919Z,11.70
2024-05-09T12:14:26.150Z,12.37
2024-05-09T12:17:01.773Z,11.83
2024-05-09T12:19:34.054Z,12.77
2024-05-09T12:22:06.236Z,12.50
2024-05-09T12:24:38.325Z,11.67
2024-05-09T12:27:10.539Z,12.17
2024-05-09T12:29:42.775Z,10.90
2024-05-09T12:32:15.084Z,11.50
2024-05-09T12:34:47.267Z,11.17
2024-05-09T12:37:19.543Z,10.83
2024-05-09T12:39:51.836Z,11.27
2024-05-09T12:42:27.420Z,10.30
2024-05-09T12:45:00.731Z,10.50
2024-05-09T12:47:32.957Z,12.10
2024-05-09T12:50:08.295Z,10.60
2024-05-09T12:52:45.459Z,11.40
2024-05-09T12:55:17.751Z,12.00
2024-05-09T12:57:50.185Z,11.17
2024-05-09T13:00:28.199Z,10.93
2024-05-09T13:03:06.185Z,12.47
2024-05-09T13:05:41.441Z,11.63
2024-05-09T13:08:14.611Z,9.77
2024-05-09T13:10:47.128Z,10.63
2024-05-09T13:13:19.707Z,10.53
2024-05-09T13:15:52.128Z,10.23
2024-05-09T13:18:24.264Z,10.13
2024-05-09T13:20:56.386Z,10.77
2024-05-09T13:23:28.473Z,10.53
2024-05-09T13:26:00.645Z,10.93
2024-05-09T13:28:33.717Z,9.63
2024-05-09T13:31:06.012Z,10.43
2024-05-09T13:33:38.359Z,10.40
2024-05-09T13:36:10.575Z,10.47
2024-05-09T13:38:42.696Z,9.60
2024-05-09T13:41:15.767Z,10.37
2024-05-09T13:43:47.872Z,10.30
2024-05-09T13:46:20.288Z,14.40
2024-05-09T13:48:52.728Z,12.97
2024-05-09T13:51:24.896Z,12.07
2024-05-09T13:53:59.402Z,10.10
2024-05-09T13:56:31.611Z,9.80
2024-05-09T13:59:04.894Z,10.60
2024-05-09T14:01:37.083Z,10.97
2024-05-09T14:04:10.131Z,10.87
2024-05-09T14:06:42.697Z,9.50
2024-05-09T14:09:15.235Z,9.50
2024-05-09T14:11:47.365Z,8.60
2024-05-09T14:14:19.557Z,9.50
2024-05-09T14:16:51.767Z,8.60
2024-05-09T14:19:23.940Z,9.20
2024-05-09T14:21:56.156Z,8.70
2024-05-09T14:24:28.272Z,8.60
2024-05-09T14:27:00.760Z,8.67
2024-05-09T14:29:35.410Z,8.70
2024-05-09T14:32:07.788Z,8.63
2024-05-09T14:34:40.000Z,8.33
2024-05-09T14:37:12.190Z,8.00
2024-05-09T14:39:44.358Z,8.90
2024-05-09T14:42:16.445Z,9.10
2024-05-09T14:44:48.797Z,8.63
2024-05-09T14:47:21.030Z,8.30
2024-05-09T14:49:53.444Z,9.13
2024-05-09T14:52:25.523Z,8.80
2024-05-09T14:55:00.714Z,9.40
2024-05-09T14:57:33.795Z,8.63
2024-05-09T15:00:11.385Z,10.50
2024-05-09T15:02:49.863Z,8.70
2024-05-09T15:05:22.170Z,10.37
2024-05-09T15:07:57.322Z,10.67
2024-05-09T15:10:34.771Z,11.83
2024-05-09T15:13:10.431Z,11.97
2024-05-09T15:15:44.834Z,10.57
2024-05-09T15:18:17.750Z,11.80
2024-05-09T15:20:50.332Z,11.07
2024-05-09T15:23:22.546Z,11.17
2024-05-09T15:25:54.644Z,9.83
2024-05-09T15:28:26.793Z,11.00
2024-05-09T15:31:00.554Z,10.90
2024-05-09T15:33:32.814Z,12.97
2024-05-09T15:36:05.368Z,13.57
2024-05-09T15:38:39.322Z,14.43
2024-05-09T15:41:11.455Z,15.00
2024-05-09T15:43:43.752Z,14.47
2024-05-09T15:46:16.041Z,13.97
2024-05-09T15:48:48.384Z,14.33
2024-05-09T15:51:20.554Z,14.30
2024-05-09T15:53:52.695Z,14.37
2024-05-09T15:56:24.915Z,14.57
2024-05-09T15:58:57.917Z,13.93
2024-05-09T16:01:30.746Z,14.73
2024-05-09T16:04:03.613Z,13.80
2024-05-09T16:06:36.249Z,13.87
2024-05-09T16:09:09.086Z,14.23
2024-05-09T16:11:41.271Z,14.07
2024-05-09T16:14:13.650Z,15.60
2024-05-09T16:16:46.075Z,14.80
2024-05-09T16:19:18.535Z,14.53
2024-05-09T16:21:50.779Z,13.70
2024-05-09T16:24:22.955Z,14.83
2024-05-09T16:26:55.184Z,13.73
2024-05-09T16:29:27.354Z,14.13
2024-05-09T16:31:59.585Z,14.20
2024-05-09T16:34:31.790Z,13.23
2024-05-09T16:37:06.651Z,14.37
2024-05-09T16:39:38.832Z,14.07
2024-05-09T16:42:11.035Z,14.57
2024-05-09T16:44:43.104Z,14.10
2024-05-09T16:47:15.262Z,14.30
2024-05-09T16:49:47.327Z,14.13
2024-05-09T16:52:19.563Z,15.07
2024-05-09T16:54:52.472Z,14.03
2024-05-09T16:57:24.721Z,14.23
2024-05-09T16:59:56.823Z,13.07
2024-05-09T17:02:30.533Z,13.73
2024-05-09T17:05:03.530Z,12.67
2024-05-09T17:07:36.027Z,13.00
2024-05-09T17:10:15.444Z,13.10
2024-05-09T17:12:54.176Z,12.90
2024-05-09T17:15:26.338Z,12.93
2024-05-09T17:17:58.636Z,12.57
2024-05-09T17:20:34.636Z,13.63
2024-05-09T17:23:15.289Z,14.20
2024-05-09T17:25:47.674Z,13.27
2024-05-09T17:28:20.307Z,14.10
2024-05-09T17:30:52.602Z,13.77
2024-05-09T17:33:24.924Z,14.03
2024-05-09T17:35:57.139Z,13.90
2024-05-09T17:38:29.373Z,14.13
2024-05-09T17:41:01.908Z,13.60
2024-05-09T17:43:34.137Z,13.97
2024-05-09T17:46:07.748Z,13.03
2024-05-09T17:48:40.093Z,13.63
2024-05-09T17:51:13.711Z,13.70
2024-05-09T17:53:47.923Z,15.40
2024-05-09T17:56:20.394Z,14.50
2024-05-09T17:58:52.645Z,13.80
2024-05-09T18:01:25.834Z,13.60
2024-05-09T18:03:58.123Z,14.60
2024-05-09T18:06:30.326Z,13.90
2024-05-09T18:09:03.075Z,15.33
2024-05-09T18:11:35.232Z,15.33
2024-05-09T18:14:07.402Z,15.13
2024-05-09T18:16:39.650Z,15.43
2024-05-09T18:19:12.454Z,15.73
2024-05-09T18:21:44.741Z,15.93
2024-05-09T18:24:16.854Z,16.17
2024-05-09T18:26:50.240Z,15.63
2024-05-09T18:29:22.777Z,17.23
2024-05-09T18:31:55.181Z,15.60
2024-05-09T18:34:27.357Z,16.07
2024-05-09T18:37:01.605Z,15.43
2024-05-09T18:39:35.107Z,16.53
2024-05-09T18:42:07.229Z,16.80
2024-05-09T18:44:39.350Z,16.63
2024-05-09T18:47:11.585Z,16.50
2024-05-09T18:49:43.803Z,16.30
2024-05-09T18:52:16.401Z,16.47
2024-05-09T18:54:48.676Z,17.37
2024-05-09T18:57:20.918Z,16.70
2024-05-09T18:59:53.019Z,16.87
2024-05-09T19:02:25.187Z,16.67
2024-05-09T19:04:57.940Z,16.70
2024-05-09T19:07:30.210Z,17.27
2024-05-09T19:10:03.354Z,18.67
2024-05-09T19:12:35.648Z,18.50
2024-05-09T19:15:08.410Z,18.57
2024-05-09T19:17:40.638Z,18.07
2024-05-09T19:20:24.677Z,17.93
2024-05-09T19:23:00.908Z,17.10
2024-05-09T19:25:34.523Z,18.17
2024-05-09T19:28:07.046Z,19.87
2024-05-09T19:30:42.025Z,19.30
2024-05-09T19:33:15.171Z,18.90
2024-05-09T19:35:47.536Z,18.20
2024-05-09T19:38:19.658Z,19.07
2024-05-09T19:40:51.954Z,18.90
2024-05-09T19:43:24.232Z,19.40
2024-05-09T19:45:56.534Z,19.57
2024-05-09T19:48:28.949Z,21.37
2024-05-09T19:51:01.707Z,21.13
2024-05-09T19:53:33.977Z,21.13
2024-05-09T19:56:06.515Z,20.60
2024-05-09T19:58:38.680Z,20.70
2024-05-09T20:01:11.065Z,20.57
2024-05-09T20:03:43.788Z,20.20
2024-05-09T20:06:16.009Z,19.90
2024-05-09T20:08:48.131Z,19.90
2024-05-09T20:11:20.388Z,20.53
2024-05-09T20:13:52.804Z,21.93
2024-05-09T20:16:25.269Z,21.00
2024-05-09T20:18:57.604Z,21.67
2024-05-09T20:21:29.822Z,21.97
2024-05-09T20:24:02.158Z,21.17
2024-05-09T20:26:34.246Z,21.63
2024-05-09T20:29:06.423Z,21.40
2024-05-09T20:31:39.026Z,21.00
2024-05-09T20:34:11.285Z,20.37
2024-05-09T20:36:43.454Z,22.20
2024-05-09T20:39:15.684Z,20.93
2024-05-09T20:41:47.741Z,21.07
2024-05-09T20:44:20.271Z,20.73
2024-05-09T20:46:52.356Z,21.90
2024-05-09T20:49:24.735Z,20.23
2024-05-09T20:51:57.867Z,21.87
2024-05-09T20:54:30.182Z,21.03
2024-05-09T20:57:03.083Z,20.80
2024-05-09T20:59:35.168Z,21.07
2024-05-09T21:02:07.380Z,21.63
2024-05-09T21:04:39.817Z,22.50
2024-05-09T21:07:12.206Z,22.00
2024-05-09T21:09:44.463Z,21.43
2024-05-09T21:12:18.827Z,21.93
2024-05-09T21:14:51.008Z,21.93
2024-05-09T21:17:23.398Z,22.30
2024-05-09T21:19:55.581Z,22.07
2024-05-09T21:22:27.742Z,21.17
2024-05-09T21:24:59.982Z,23.50
2024-05-09T21:27:34.357Z,26.10
2024-05-09T21:30:10.385Z,25.90
2024-05-09T21:32:48.067Z,27.20
2024-05-09T21:35:20.228Z,30.03
2024-05-09T21:37:52.362Z,28.77
2024-05-09T21:40:31.538Z,26.87
2024-05-09T21:43:07.947Z,26.47
2024-05-09T21:45:40.404Z,26.57
2024-05-09T21:48:13.413Z,24.97
2024-05-09T21:50:45.622Z,26.20
2024-05-09T21:53:19.151Z,26.47
2024-05-09T21:55:51.252Z,26.63
2024-05-09T21:58:23.758Z,26.57
2024-05-09T22:00:56.023Z,26.93
2024-05-09T22:03:28.419Z,26.53
2024-05-09T22:06:01.612Z,27.33
2024-05-09T22:08:33.762Z,28.57
2024-05-09T22:11:06.902Z,28.27
2024-05-09T22:13:39.044Z,29.27
2024-05-09T22:16:11.210Z,28.10
2024-05-09T22:18:43.576Z,28.47
2024-05-09T22:21:15.835Z,28.50
2024-05-09T22:23:48.221Z,28.47
2024-05-09T22:26:20.688Z,28.87
2024-05-09T22:28:52.820Z,30.17
2024-05-09T22:31:25.261Z,29.87
2024-05-09T22:33:57.841Z,30.10
2024-05-09T22:36:30.150Z,30.10
2024-05-09T22:39:03.050Z,29.60
2024-05-09T22:41:35.229Z,30.23
2024-05-09T22:44:07.337Z,29.87
2024-05-09T22:46:39.513Z,30.40
2024-05-09T22:49:11.847Z,30.80
2024-05-09T22:51:44.064Z,30.70
2024-05-09T22:54:16.178Z,30.07
2024-05-09T22:56:48.331Z,31.50
2024-05-09T22:59:20.446Z,32.03
2024-05-09T23:01:52.549Z,30.90
2024-05-09T23:04:24.871Z,31.23
2024-05-09T23:06:56.992Z,30.70
2024-05-09T23:09:29.096Z,30.73
2024-05-09T23:12:01.871Z,31.20
2024-05-09T23:14:34.766Z,31.27
2024-05-09T23:17:06.919Z,32.97
2024-05-09T23:19:39.111Z,31.50
2024-05-09T23:22:11.584Z,30.97
2024-05-09T23:24:43.812Z,31.87
2024-05-09T23:27:16.010Z,31.77
2024-05-09T23:29:48.095Z,31.50
2024-05-09T23:32:20.401Z,31.97
2024-05-09T23:34:52.653Z,32.07
2024-05-09T23:37:26.186Z,30.73
2024-05-09T23:39:58.430Z,31.13
2024-05-09T23:42:30.564Z,31.00
2024-05-09T23:45:03.091Z,31.07
2024-05-09T23:47:35.710Z,33.47
2024-05-09T23:50:16.233Z,32.33
2024-05-09T23:52:52.384Z,31.17
2024-05-09T23:55:24.658Z,31.63
2024-05-09T23:57:56.815Z,32.20
